Time;durP1;ratioP1;P1;durP2;ratioP2;P2;SDS_P1;SDS_P2;PMS_P1;PMS_P2;Temp;Humidity;BMP_temperature;BMP_pressure;BME280_temperature;BME280_humidity;BME280_pressure;Samples;Min_cycle;Max_cycle;Signal;HPM_P1;HPM_P2
2022/04/21 00:00:37;;;;;;;5.43;4.35;;;7.80;95.20;;;;;;5052250;28;20039;-67
2022/04/21 00:03:04;;;;;;;5.75;4.25;;;7.70;95.60;;;;;;5051930;28;20115;-68
2022/04/21 00:05:31;;;;;;;5.00;4.32;;;7.60;96.00;;;;;;5051556;28;20035;-67
2022/04/21 00:07:57;;;;;;;6.78;4.38;;;7.60;96.10;;;;;;5052007;28;20037;-67
2022/04/21 00:10:23;;;;;;;6.13;4.43;;;7.50;96.50;;;;;;5051397;28;20024;-67
2022/04/21 00:12:49;;;;;;;9.48;5.03;;;7.50;97.20;;;;;;5051907;28;20041;-68
2022/04/21 00:15:16;;;;;;;5.90;4.40;;;7.40;98.10;;;;;;5051622;28;20028;-67
2022/04/21 00:17:42;;;;;;;4.60;4.18;;;7.30;98.30;;;;;;5051634;28;20032;-68
2022/04/21 00:20:08;;;;;;;6.38;4.50;;;7.20;98.40;;;;;;5051354;28;20453;-66
2022/04/21 00:25:18;;;;;;;7.72;4.65;;;7.10;99.50;;;;;;5051104;28;20120;-66
2022/04/21 00:27:45;;;;;;;7.20;4.65;;;7.00;99.90;;;;;;5050246;28;20056;-67
2022/04/21 00:30:12;;;;;;;6.75;4.13;;;7.00;99.90;;;;;;5048943;28;20123;-66
2022/04/21 00:32:39;;;;;;;4.50;3.92;;;6.90;99.90;;;;;;5051436;28;20025;-67
2022/04/21 00:35:07;;;;;;;5.75;3.95;;;6.90;99.90;;;;;;5051874;28;20025;-66
2022/04/21 00:37:33;;;;;;;6.28;4.28;;;6.80;99.90;;;;;;5051357;28;20029;-67
2022/04/21 00:39:59;;;;;;;6.05;4.20;;;6.70;99.90;;;;;;5051484;28;20041;-66
2022/04/21 00:42:25;;;;;;;7.38;4.68;;;6.60;99.90;;;;;;5050781;28;20029;-67
2022/04/21 00:44:50;;;;;;;8.50;4.40;;;6.50;99.90;;;;;;5051870;28;20028;-67
2022/04/21 00:47:19;;;;;;;6.07;4.60;;;6.50;99.90;;;;;;5050987;28;20033;-67
2022/04/21 00:49:46;;;;;;;7.18;4.25;;;6.50;99.90;;;;;;5052610;28;20458;-67
2022/04/21 00:52:13;;;;;;;5.60;4.40;;;6.40;99.90;;;;;;5054800;28;20072;-66
2022/04/21 00:54:39;;;;;;;7.10;4.43;;;6.30;99.90;;;;;;5055585;28;20025;-67
2022/04/21 00:57:05;;;;;;;7.05;4.43;;;6.30;99.90;;;;;;5054536;28;20025;-68
2022/04/21 00:59:33;;;;;;;6.38;4.60;;;6.20;99.90;;;;;;5053655;28;20086;-68
2022/04/21 01:04:46;;;;;;;6.53;4.53;;;6.20;99.90;;;;;;5055605;28;20052;-65
2022/04/21 01:07:11;;;;;;;6.18;4.78;;;6.10;99.90;;;;;;5053189;28;20029;-65
2022/04/21 01:09:38;;;;;;;6.45;4.80;;;6.10;99.90;;;;;;5054247;28;20112;-66
2022/04/21 01:12:13;;;;;;;8.30;5.93;;;6.10;99.90;;;;;;5054853;28;20124;-67
2022/04/21 01:14:39;;;;;;;6.45;5.22;;;6.10;99.90;;;;;;5054325;28;20382;-66
2022/04/21 01:17:05;;;;;;;7.85;5.72;;;6.00;99.90;;;;;;5055058;28;20032;-66
2022/04/21 01:19:31;;;;;;;7.53;5.82;;;6.00;99.90;;;;;;5054216;28;20029;-66
2022/04/21 01:21:57;;;;;;;5.88;4.57;;;6.00;99.90;;;;;;5054568;28;20029;-66
2022/04/21 01:24:23;;;;;;;9.50;5.65;;;6.00;99.90;;;;;;5054394;28;20390;-66
2022/04/21 01:26:49;;;;;;;7.78;5.10;;;5.90;99.90;;;;;;5055117;28;20493;-66
2022/04/21 01:29:17;;;;;;;9.13;5.38;;;5.90;99.90;;;;;;5054307;28;20025;-65
2022/04/21 01:31:43;;;;;;;6.45;5.00;;;5.80;99.90;;;;;;5054796;28;20025;-66
2022/04/21 01:34:09;;;;;;;8.45;5.47;;;5.70;99.90;;;;;;5054844;28;20029;-66
2022/04/21 01:36:35;;;;;;;8.65;5.72;;;5.60;99.90;;;;;;5054421;28;20064;-67
2022/04/21 01:41:45;;;;;;;6.10;5.25;;;5.60;99.90;;;;;;5054422;28;20113;-66
2022/04/21 01:44:11;;;;;;;6.93;5.15;;;5.50;99.90;;;;;;5054463;28;20052;-65
2022/04/21 01:46:36;;;;;;;6.78;5.53;;;5.50;99.90;;;;;;5054250;28;20066;-66
2022/04/21 01:49:02;;;;;;;7.03;5.03;;;5.50;99.90;;;;;;5054860;28;20025;-67
2022/04/21 01:51:28;;;;;;;7.10;5.72;;;5.40;99.90;;;;;;5053118;28;20041;-66
2022/04/21 01:53:53;;;;;;;7.03;6.22;;;5.40;99.90;;;;;;5053253;28;20046;-67
2022/04/21 01:56:19;;;;;;;8.30;5.70;;;5.40;99.90;;;;;;5052265;28;20025;-66
2022/04/21 01:58:46;;;;;;;7.20;5.78;;;5.30;99.90;;;;;;5052916;28;20391;-67
2022/04/21 02:01:11;;;;;;;7.95;5.70;;;5.30;99.90;;;;;;5051362;28;20488;-66
2022/04/21 02:03:37;;;;;;;8.57;6.20;;;5.30;99.90;;;;;;5052660;28;20098;-66
2022/04/21 02:06:03;;;;;;;8.68;6.07;;;5.20;99.90;;;;;;5052858;28;20048;-67
2022/04/21 02:08:28;;;;;;;7.47;5.85;;;5.20;99.90;;;;;;5050609;28;20036;-66
2022/04/21 02:10:54;;;;;;;9.50;6.20;;;5.20;99.90;;;;;;5034386;28;20029;-67
2022/04/21 02:13:20;;;;;;;7.82;6.15;;;5.20;99.90;;;;;;5036106;28;20440;-66
2022/04/21 02:15:45;;;;;;;8.75;6.10;;;5.10;99.90;;;;;;5053124;28;20028;-67
2022/04/21 02:18:11;;;;;;;10.02;6.90;;;5.10;99.90;;;;;;5053151;28;20398;-67
2022/04/21 02:20:37;;;;;;;10.30;6.53;;;5.10;99.90;;;;;;5053513;28;20084;-66
2022/04/21 02:23:03;;;;;;;8.50;6.32;;;5.10;99.90;;;;;;5053564;28;20087;-67
2022/04/21 02:25:28;;;;;;;9.52;6.88;;;5.10;99.90;;;;;;5052004;28;20029;-66
2022/04/21 02:27:54;;;;;;;10.27;6.85;;;5.00;99.90;;;;;;5053836;28;20528;-66
2022/04/21 02:30:20;;;;;;;8.38;7.00;;;5.00;99.90;;;;;;5053156;28;20033;-66
2022/04/21 02:32:46;;;;;;;8.13;6.78;;;5.00;99.90;;;;;;5053697;28;20541;-66
2022/04/21 02:35:13;;;;;;;10.10;7.28;;;5.00;99.90;;;;;;5053500;28;20032;-66
2022/04/21 02:37:42;;;;;;;10.27;6.88;;;5.00;99.90;;;;;;5053554;28;20115;-66
2022/04/21 02:40:09;;;;;;;9.98;7.07;;;5.00;99.90;;;;;;5053810;28;20124;-66
2022/04/21 02:42:38;;;;;;;9.95;7.18;;;4.90;99.90;;;;;;5052642;28;20017;-66
2022/04/21 02:45:05;;;;;;;8.05;6.63;;;4.90;99.90;;;;;;5053255;28;20070;-66
2022/04/21 02:47:31;;;;;;;8.32;6.55;;;4.90;99.90;;;;;;5052456;28;20165;-69
2022/04/21 02:49:57;;;;;;;7.05;6.35;;;4.80;99.90;;;;;;5053428;28;20478;-72
2022/04/21 02:52:23;;;;;;;11.55;9.00;;;4.70;99.90;;;;;;5051093;28;20049;-71
2022/04/21 02:57:33;;;;;;;10.57;8.40;;;4.80;99.90;;;;;;5053606;28;20160;-68
2022/04/21 03:00:03;;;;;;;9.63;7.72;;;4.80;99.90;;;;;;5053878;28;20456;-69
2022/04/21 03:02:28;;;;;;;11.07;7.72;;;4.80;99.90;;;;;;5052642;28;20078;-69
2022/04/21 03:04:54;;;;;;;10.05;8.00;;;4.70;99.90;;;;;;5052227;28;20103;-69
2022/04/21 03:07:22;;;;;;;11.25;8.40;;;4.70;99.90;;;;;;5052485;28;20113;-68
2022/04/21 03:09:48;;;;;;;10.90;8.90;;;4.70;99.90;;;;;;5053196;28;20029;-69
2022/04/21 03:12:14;;;;;;;13.15;8.43;;;4.70;99.90;;;;;;5052647;28;20226;-69
2022/04/21 03:14:40;;;;;;;14.48;8.65;;;4.60;99.90;;;;;;5051886;28;20159;-68
2022/04/21 03:17:08;;;;;;;13.15;8.57;;;4.60;99.90;;;;;;5053047;28;20025;-69
2022/04/21 03:19:34;;;;;;;11.07;8.38;;;4.60;99.90;;;;;;5052281;28;20114;-69
2022/04/21 03:24:45;;;;;;;11.50;8.98;;;4.60;99.90;;;;;;5059249;28;20032;-68
2022/04/21 03:27:11;;;;;;;11.80;8.70;;;4.50;99.90;;;;;;5052695;28;20025;-68
2022/04/21 03:29:39;;;;;;;13.43;9.65;;;4.50;99.90;;;;;;5052041;28;20037;-69
2022/04/21 03:32:13;;;;;;;14.68;10.30;;;4.50;99.90;;;;;;5052809;28;20025;-69
2022/04/21 03:34:40;;;;;;;13.48;10.57;;;4.50;99.90;;;;;;5051700;28;20036;-68
2022/04/21 03:37:07;;;;;;;13.65;10.48;;;4.50;99.90;;;;;;5052662;28;20386;-69
2022/04/21 03:39:35;;;;;;;15.60;11.02;;;4.50;99.90;;;;;;5051767;28;20043;-67
2022/04/21 03:42:01;;;;;;;14.18;10.63;;;4.50;99.90;;;;;;5052325;28;20078;-67
2022/04/21 03:44:27;;;;;;;15.07;10.40;;;4.50;99.90;;;;;;5051479;28;20040;-68
2022/04/21 03:46:57;;;;;;;13.50;10.25;;;4.60;99.90;;;;;;5052288;28;20029;-68
2022/04/21 03:49:32;;;;;;;16.55;10.38;;;4.50;99.90;;;;;;5051583;28;20479;-67
2022/04/21 03:51:58;;;;;;;16.70;9.68;;;4.50;99.90;;;;;;5052333;28;20053;-67
2022/04/21 03:54:24;;;;;;;11.85;9.93;;;4.50;99.90;;;;;;5060395;28;20024;-67
2022/04/21 03:56:50;;;;;;;13.35;9.30;;;4.50;99.90;;;;;;5072565;28;20033;-68
2022/04/21 03:59:21;;;;;;;14.95;10.07;;;4.40;99.90;;;;;;5060474;28;20394;-68
2022/04/21 04:01:47;;;;;;;15.45;10.48;;;4.30;99.90;;;;;;5051706;28;20029;-68
2022/04/21 04:04:13;;;;;;;11.57;9.52;;;4.30;99.90;;;;;;5050598;28;20079;-69
2022/04/21 04:12:10;;;;;;;11.68;10.00;;;4.20;99.90;;;;;;5051499;28;20048;-68
2022/04/21 04:14:37;;;;;;;14.18;11.35;;;4.20;99.90;;;;;;5050446;28;20025;-67
2022/04/21 04:17:03;;;;;;;14.10;11.55;;;4.20;99.90;;;;;;5051418;28;20112;-68
2022/04/21 04:19:29;;;;;;;14.05;11.43;;;4.20;99.90;;;;;;5050697;28;20029;-67
2022/04/21 04:21:54;;;;;;;16.38;12.02;;;4.20;99.90;;;;;;5050156;28;20545;-67
2022/04/21 04:24:20;;;;;;;16.95;12.48;;;4.20;99.90;;;;;;5051511;28;20108;-67
2022/04/21 04:26:46;;;;;;;21.40;14.55;;;4.20;99.90;;;;;;5049775;28;20032;-67
2022/04/21 04:29:11;;;;;;;16.42;12.50;;;4.20;99.90;;;;;;5051625;28;20033;-67
2022/04/21 04:31:40;;;;;;;14.43;11.70;;;4.30;99.90;;;;;;5051068;28;20358;-67
2022/04/21 04:34:08;;;;;;;14.27;11.40;;;4.30;99.90;;;;;;5051211;28;20399;-67
2022/04/21 04:36:34;;;;;;;16.95;12.52;;;4.30;99.90;;;;;;5050601;28;20021;-67
2022/04/21 04:39:00;;;;;;;14.23;12.00;;;4.30;99.90;;;;;;5050976;28;20029;-67
2022/04/21 04:44:23;;;;;;;17.35;12.30;;;4.30;99.90;;;;;;5029678;28;20463;-67
2022/04/21 04:46:49;;;;;;;16.27;12.82;;;4.30;99.90;;;;;;5036711;28;20056;-67
2022/04/21 04:49:15;;;;;;;17.23;13.23;;;4.30;99.90;;;;;;5050546;28;20393;-67
2022/04/21 04:51:42;;;;;;;14.52;12.10;;;4.30;99.90;;;;;;5050617;28;20455;-67
2022/04/21 04:54:12;;;;;;;17.30;12.30;;;4.40;99.90;;;;;;5051550;28;20037;-68
2022/04/21 04:56:38;;;;;;;;;;;4.40;99.90;;;;;;5051455;28;20029;-68
2022/04/21 04:59:04;;;;;;;16.80;12.10;;;4.40;99.90;;;;;;5051632;28;19966;-70
2022/04/21 05:01:34;;;;;;;16.02;12.73;;;4.40;99.90;;;;;;5050285;28;20025;-68
2022/04/21 05:04:11;;;;;;;16.25;13.75;;;4.50;99.90;;;;;;5051688;28;20029;-69
2022/04/21 05:06:48;;;;;;;16.23;12.68;;;4.60;99.90;;;;;;5051246;28;20032;-67
2022/04/21 05:09:16;;;;;;;17.45;13.07;;;4.60;99.90;;;;;;5051711;28;20156;-68
2022/04/21 05:11:44;;;;;;;17.42;13.18;;;4.70;99.90;;;;;;5048831;28;20545;-67
2022/04/21 05:14:10;;;;;;;14.77;12.38;;;4.80;99.90;;;;;;5051255;28;20029;-68
2022/04/21 05:16:37;;;;;;;14.43;10.82;;;4.80;99.90;;;;;;5050351;28;20025;-70
2022/04/21 05:19:04;;;;;;;14.77;11.65;;;4.90;99.90;;;;;;5050859;28;20021;-69
2022/04/21 05:21:30;;;;;;;16.73;12.48;;;5.00;99.90;;;;;;5050406;28;20040;-73
2022/04/21 05:23:58;;;;;;;16.17;12.82;;;5.10;99.90;;;;;;5051027;28;20394;-74
2022/04/21 05:26:25;;;;;;;16.98;12.20;;;5.10;99.90;;;;;;5051823;28;20021;-72
2022/04/21 05:28:52;;;;;;;16.52;11.45;;;5.20;99.90;;;;;;5051399;28;20162;-79
2022/04/21 05:31:18;;;;;;;16.70;11.88;;;5.30;99.90;;;;;;5052850;28;20086;-78
2022/04/21 05:33:44;;;;;;;17.90;12.32;;;5.40;99.90;;;;;;5050174;28;20263;-69
2022/04/21 05:36:10;;;;;;;13.38;10.20;;;5.50;99.90;;;;;;5052754;28;20117;-69
2022/04/21 05:38:36;;;;;;;16.88;11.88;;;5.60;99.90;;;;;;5053831;28;20017;-69
2022/04/21 05:41:03;;;;;;;12.73;11.20;;;5.70;99.90;;;;;;5054770;28;20045;-68
2022/04/21 05:43:39;;;;;;;14.50;11.10;;;5.80;99.90;;;;;;5053914;28;20036;-70
2022/04/21 05:46:06;;;;;;;16.13;11.60;;;5.90;99.90;;;;;;5054704;28;20029;-70
2022/04/21 05:48:32;;;;;;;12.50;10.70;;;6.00;99.90;;;;;;5053643;28;20063;-71
2022/04/21 05:50:58;;;;;;;13.85;10.60;;;6.10;99.90;;;;;;5054473;28;20455;-69
2022/04/21 05:53:26;;;;;;;13.40;10.25;;;6.20;99.90;;;;;;5053838;28;20055;-67
2022/04/21 05:55:53;;;;;;;13.57;10.10;;;6.30;99.90;;;;;;5052742;28;20029;-67
2022/04/21 05:58:20;;;;;;;16.52;11.75;;;6.40;99.90;;;;;;5053119;28;20041;-69
2022/04/21 06:00:46;;;;;;;14.02;11.38;;;6.50;99.90;;;;;;5053268;28;20041;-69
2022/04/21 06:03:12;;;;;;;14.35;11.80;;;6.70;99.90;;;;;;5054170;28;20060;-70
2022/04/21 06:05:39;;;;;;;16.55;12.32;;;6.80;99.90;;;;;;5053594;28;20059;-70
2022/04/21 06:08:06;;;;;;;24.65;12.18;;;6.90;99.90;;;;;;5054057;28;20029;-69
2022/04/21 06:10:35;;;;;;;16.13;12.50;;;7.10;99.90;;;;;;5053295;28;20032;-69
2022/04/21 06:13:04;;;;;;;19.77;12.35;;;7.40;99.90;;;;;;5058950;28;20107;-70
2022/04/21 06:15:30;;;;;;;16.60;13.30;;;7.60;99.90;;;;;;5073534;28;20040;-68
2022/04/21 06:17:57;;;;;;;17.52;12.95;;;7.70;99.90;;;;;;5072843;28;20033;-71
2022/04/21 06:20:23;;;;;;;19.05;13.18;;;7.80;99.90;;;;;;5058601;28;20238;-69
2022/04/21 06:22:48;;;;;;;15.85;12.27;;;7.90;99.90;;;;;;5051876;28;20149;-71
2022/04/21 06:25:14;;;;;;;16.80;11.98;;;7.90;99.90;;;;;;5053373;28;20466;-70
2022/04/21 06:27:39;;;;;;;15.68;12.40;;;8.00;99.90;;;;;;5053257;28;20021;-71
2022/04/21 06:30:05;;;;;;;17.88;13.77;;;8.10;99.90;;;;;;5053874;28;20037;-70
2022/04/21 06:32:31;;;;;;;19.23;14.00;;;8.20;99.90;;;;;;5052961;28;20032;-68
2022/04/21 06:34:57;;;;;;;18.52;13.00;;;8.30;99.90;;;;;;5053286;28;20393;-70
2022/04/21 06:37:23;;;;;;;19.92;13.23;;;8.40;99.90;;;;;;5053592;28;20025;-72
2022/04/21 06:39:49;;;;;;;15.32;12.77;;;8.40;99.90;;;;;;5052521;28;20118;-71
2022/04/21 06:42:15;;;;;;;16.92;12.07;;;8.40;99.90;;;;;;5054432;28;20437;-70
2022/04/21 06:50:09;;;;;;;17.77;13.02;;;8.70;99.90;;;;;;5056357;28;20398;-71
2022/04/21 06:52:37;;;;;;;22.20;13.15;;;8.80;99.90;;;;;;5063832;28;20048;-69
2022/04/21 06:55:04;;;;;;;18.55;13.93;;;8.90;99.90;;;;;;5059421;28;20068;-71
2022/04/21 06:57:29;;;;;;;18.23;12.80;;;9.10;99.90;;;;;;5057515;28;20033;-69
2022/04/21 06:59:56;;;;;;;15.90;13.63;;;9.10;99.90;;;;;;5051486;28;20390;-71
2022/04/21 07:02:31;;;;;;;15.52;12.52;;;9.20;99.90;;;;;;5051749;28;20445;-70
2022/04/21 07:05:05;;;;;;;14.05;12.55;;;9.30;99.90;;;;;;5052774;28;20086;-71
2022/04/21 07:07:31;;;;;;;17.70;11.65;;;9.40;99.90;;;;;;5051676;28;20116;-68
2022/04/21 07:09:57;;;;;;;16.52;12.52;;;9.40;99.90;;;;;;5052642;28;20119;-70
2022/04/21 07:12:31;;;;;;;16.50;11.65;;;9.50;99.90;;;;;;5054251;28;20064;-70
2022/04/21 07:14:58;;;;;;;18.40;12.68;;;9.50;99.90;;;;;;5047043;28;20057;-70
2022/04/21 07:17:24;;;;;;;16.60;12.18;;;9.60;99.90;;;;;;5033262;28;20025;-71
2022/04/21 07:19:50;;;;;;;14.30;12.80;;;9.80;99.90;;;;;;5048020;28;20045;-71
2022/04/21 07:22:24;;;;;;;19.40;12.40;;;9.80;99.90;;;;;;5032582;28;20090;-72
2022/04/21 07:24:53;;;;;;;14.02;12.13;;;9.70;99.50;;;;;;5032287;28;20033;-71
2022/04/21 07:27:22;;;;;;;14.93;11.77;;;9.80;99.80;;;;;;5034195;28;20025;-71
2022/04/21 07:29:49;;;;;;;20.92;13.05;;;9.80;99.50;;;;;;5035424;28;20535;-69
2022/04/21 07:32:15;;;;;;;17.45;11.77;;;9.90;99.90;;;;;;5034716;28;20026;-71
2022/04/21 07:34:41;;;;;;;16.50;12.15;;;10.00;99.90;;;;;;5043758;28;20033;-70
2022/04/21 07:37:08;;;;;;;13.73;11.55;;;10.10;99.80;;;;;;5052674;28;20355;-71
2022/04/21 07:39:35;;;;;;;17.33;12.25;;;10.30;99.10;;;;;;5044044;28;20065;-68
2022/04/21 07:42:00;;;;;;;16.30;11.80;;;10.40;98.70;;;;;;5032328;28;20534;-71
2022/04/21 07:44:27;;;;;;;17.00;12.05;;;10.50;98.00;;;;;;5053090;28;20116;-71
2022/04/21 07:46:53;;;;;;;14.98;12.05;;;10.50;98.10;;;;;;5036195;28;20827;-70
2022/04/21 07:54:48;;;;;;;15.73;10.95;;;10.60;97.80;;;;;;5042876;28;20126;-69
2022/04/21 07:57:14;;;;;;;13.10;11.70;;;10.70;97.40;;;;;;5052133;28;20076;-71
2022/04/21 07:59:39;;;;;;;13.32;10.48;;;10.90;96.90;;;;;;5042041;28;20037;-69
2022/04/21 08:02:08;;;;;;;14.15;11.38;;;11.00;97.20;;;;;;5035169;28;20228;-74
2022/04/21 08:04:34;;;;;;;13.38;10.70;;;11.00;96.30;;;;;;5040850;28;20028;-72
2022/04/21 08:07:00;;;;;;;14.15;12.00;;;11.00;96.10;;;;;;5051686;28;20029;-70
2022/04/21 08:09:26;;;;;;;17.83;11.95;;;11.00;96.10;;;;;;5052249;28;20088;-69
2022/04/21 08:11:52;;;;;;;15.80;11.30;;;11.10;95.60;;;;;;5052399;28;20072;-69
2022/04/21 08:14:18;;;;;;;13.43;10.55;;;11.20;95.60;;;;;;5056059;28;20434;-72
2022/04/21 08:16:44;;;;;;;13.18;10.98;;;11.30;95.90;;;;;;5049353;28;20060;-70
2022/04/21 08:19:11;;;;;;;14.45;11.45;;;11.40;94.80;;;;;;5052635;28;20053;-73
2022/04/21 08:21:37;;;;;;;13.35;10.68;;;11.40;94.90;;;;;;5048377;28;20029;-70
2022/04/21 08:35:03;;;;;;;14.18;10.48;;;11.70;93.20;;;;;;5047959;28;20493;-69
2022/04/21 08:37:29;;;;;;;13.65;11.07;;;11.80;93.10;;;;;;5050796;28;20057;-70
2022/04/21 08:39:57;;;;;;;11.40;9.90;;;11.90;92.30;;;;;;5049667;28;20131;-68
2022/04/21 08:42:24;;;;;;;11.20;9.20;;;12.00;92.20;;;;;;5051711;28;20032;-69
2022/04/21 08:44:50;;;;;;;12.43;9.60;;;12.00;91.90;;;;;;5049628;28;20049;-71
2022/04/21 08:47:19;;;;;;;11.77;9.60;;;12.10;91.70;;;;;;5047622;28;20481;-69
2022/04/21 08:49:49;;;;;;;12.65;10.75;;;12.40;91.10;;;;;;5050659;28;20378;-69
2022/04/21 08:52:16;;;;;;;12.70;10.65;;;12.60;90.50;;;;;;5031008;28;20045;-70
2022/04/21 08:54:46;;;;;;;12.57;10.60;;;12.60;90.60;;;;;;5030383;28;20038;-70
2022/04/21 08:57:12;;;;;;;12.90;9.68;;;12.70;90.60;;;;;;5045786;28;20104;-71
2022/04/21 08:59:38;;;;;;;14.50;10.05;;;12.80;90.10;;;;;;5051393;28;20036;-70
2022/04/21 09:02:03;;;;;;;15.18;10.48;;;13.10;92.20;;;;;;5049615;28;20104;-70
2022/04/21 09:04:30;;;;;;;12.32;10.05;;;13.20;86.90;;;;;;5031357;28;20033;-70
2022/04/21 09:06:56;;;;;;;10.85;8.65;;;13.20;85.00;;;;;;5042685;28;20026;-70
2022/04/21 09:09:23;;;;;;;11.50;9.50;;;13.20;85.20;;;;;;5050791;28;20382;-71
2022/04/21 09:11:53;;;;;;;11.75;9.43;;;13.30;84.50;;;;;;5053170;28;20421;-71
2022/04/21 09:14:20;;;;;;;11.35;8.98;;;13.50;83.60;;;;;;5060934;28;20521;-71
2022/04/21 09:16:47;;;;;;;11.40;9.05;;;13.60;83.00;;;;;;5034406;28;20026;-70
2022/04/21 09:19:17;;;;;;;13.40;9.65;;;;;;;;;;5044164;28;20429;-72
2022/04/21 09:21:43;;;;;;;9.65;8.73;;;14.00;99.90;;;;;;5055397;28;20458;-71
2022/04/21 09:24:22;;;;;;;12.43;9.10;;;14.00;79.40;;;;;;5046246;28;20116;-72
2022/04/21 09:26:49;;;;;;;12.77;8.53;;;14.00;79.50;;;;;;5050333;28;20458;-72
2022/04/21 09:29:32;;;;;;;11.80;9.05;;;14.10;79.00;;;;;;5054377;28;20430;-71
2022/04/21 09:32:00;;;;;;;9.93;8.55;;;14.30;77.50;;;;;;5052760;28;20025;-70
2022/04/21 09:34:26;;;;;;;11.00;8.02;;;14.30;78.70;;;;;;5053881;28;20517;-71
2022/04/21 09:36:57;;;;;;;9.02;7.03;;;14.50;77.40;;;;;;5053558;28;20025;-71
2022/04/21 09:39:23;;;;;;;10.77;8.07;;;14.60;76.00;;;;;;5052055;28;20086;-72
2022/04/21 09:41:56;;;;;;;10.02;8.85;;;14.80;74.80;;;;;;5053121;28;20025;-71
2022/04/21 09:47:21;;;;;;;10.82;7.50;;;15.10;74.10;;;;;;5034583;28;20032;-71
2022/04/21 09:49:47;;;;;;;12.30;7.57;;;15.20;73.10;;;;;;5052778;28;20061;-70
2022/04/21 09:52:24;;;;;;;17.85;8.90;;;15.30;72.80;;;;;;5046677;28;20049;-71
2022/04/21 09:54:50;;;;;;;21.23;11.95;;;15.50;70.60;;;;;;5046656;28;20451;-70
2022/04/21 09:57:31;;;;;;;14.85;8.52;;;15.50;69.80;;;;;;5054270;28;20060;-70
2022/04/21 09:59:58;;;;;;;12.48;7.25;;;15.50;69.60;;;;;;5053653;28;20037;-71
2022/04/21 10:02:27;;;;;;;8.25;6.53;;;15.60;69.10;;;;;;5054176;28;20020;-71
2022/04/21 10:04:55;;;;;;;7.38;6.20;;;15.50;70.90;;;;;;5053359;28;20033;-70
2022/04/21 10:07:22;;;;;;;8.73;6.82;;;15.40;68.30;;;;;;5054384;28;20100;-70
2022/04/21 10:09:48;;;;;;;6.55;5.72;;;15.40;67.70;;;;;;5053790;28;20033;-68
2022/04/21 10:12:15;;;;;;;9.32;6.25;;;15.40;68.60;;;;;;5053700;28;20044;-69
2022/04/21 10:14:41;;;;;;;9.00;6.95;;;15.50;68.10;;;;;;5061977;28;20087;-69
2022/04/21 10:17:09;;;;;;;8.32;7.22;;;15.60;68.00;;;;;;5053151;28;20928;-74
2022/04/21 10:19:34;;;;;;;7.30;6.60;;;15.80;67.90;;;;;;5053612;28;20036;-73
2022/04/21 10:22:03;;;;;;;9.80;6.90;;;15.60;67.80;;;;;;5051398;28;20163;-71
2022/04/21 10:24:32;;;;;;;6.93;6.22;;;15.70;68.70;;;;;;5053510;28;20024;-80
2022/04/21 10:26:58;;;;;;;11.65;6.95;;;15.50;69.30;;;;;;5053005;28;20078;-63
2022/04/21 10:29:27;;;;;;;6.82;5.82;;;15.30;68.40;;;;;;5053624;28;20108;-68
2022/04/21 10:32:00;;;;;;;6.13;5.35;;;15.50;68.70;;;;;;5052743;28;20028;-64
2022/04/21 10:34:46;;;;;;;6.40;5.65;;;15.70;68.10;;;;;;5053694;28;20116;-64
2022/04/21 10:37:19;;;;;;;5.90;5.30;;;15.90;67.80;;;;;;5053460;28;20072;-63
2022/04/21 10:40:03;;;;;;;6.63;5.18;;;16.10;67.40;;;;;;5052977;28;20486;-66
2022/04/21 10:42:29;;;;;;;7.38;6.68;;;16.20;67.00;;;;;;5054740;28;20402;-64
2022/04/21 10:44:55;;;;;;;7.05;6.35;;;16.20;66.70;;;;;;5063395;28;20025;-63
2022/04/21 10:47:31;;;;;;;7.38;6.05;;;16.00;67.10;;;;;;5053585;28;20090;-63
2022/04/21 10:50:15;;;;;;;6.30;5.65;;;15.70;67.50;;;;;;5052618;28;20033;-64
2022/04/21 10:58:34;;;;;;;6.32;5.43;;;16.50;67.70;;;;;;5053407;28;20130;-64
2022/04/21 11:01:09;;;;;;;5.25;4.75;;;16.70;66.60;;;;;;5051955;28;20123;-62
2022/04/21 11:03:38;;;;;;;6.72;6.00;;;16.50;67.30;;;;;;5053327;28;20024;-62
2022/04/21 11:06:11;;;;;;;5.68;5.10;;;16.10;66.50;;;;;;5052550;28;20037;-63
2022/04/21 11:08:37;;;;;;;6.60;5.28;;;16.00;68.60;;;;;;5053107;28;20103;-64
2022/04/21 11:11:04;;;;;;;5.30;4.80;;;16.10;68.10;;;;;;5051897;28;20120;-64
2022/04/21 11:13:43;;;;;;;4.72;4.22;;;16.30;67.30;;;;;;5062760;28;20142;-63
2022/04/21 11:16:08;;;;;;;5.47;4.78;;;16.80;67.60;;;;;;5052946;28;20025;-63
2022/04/21 11:18:34;;;;;;;7.78;4.05;;;17.40;65.00;;;;;;5052793;28;20343;-64
2022/04/21 11:21:23;;;;;;;4.38;3.97;;;17.60;64.70;;;;;;5051569;28;20466;-63
2022/04/21 11:23:48;;;;;;;9.45;4.00;;;17.60;64.30;;;;;;5032539;28;20029;-66
2022/04/21 11:26:14;;;;;;;6.30;3.70;;;17.60;65.80;;;;;;5051524;28;20364;-64
2022/04/21 11:28:45;;;;;;;5.10;4.43;;;18.00;64.90;;;;;;5052647;28;20382;-64
2022/04/21 11:31:11;;;;;;;4.55;3.83;;;18.10;63.20;;;;;;5051485;28;20021;-64
2022/04/21 11:33:39;;;;;;;4.85;3.60;;;18.00;62.80;;;;;;5052450;28;20029;-64
2022/04/21 11:36:06;;;;;;;5.47;3.55;;;17.80;62.70;;;;;;5051693;28;20029;-64
2022/04/21 11:38:33;;;;;;;5.47;3.33;;;17.60;63.40;;;;;;5052652;28;20029;-64
2022/04/21 11:41:03;;;;;;;6.57;3.17;;;17.30;63.50;;;;;;5051611;28;20049;-65
2022/04/21 11:43:29;;;;;;;;;;;17.30;64.30;;;;;;5062396;28;20056;-63
2022/04/21 11:45:59;;;;;;;3.03;2.78;;;17.70;63.50;;;;;;5054103;28;19952;-65
2022/04/21 11:48:33;;;;;;;4.80;3.28;;;18.10;63.00;;;;;;5052015;28;20056;-63
2022/04/21 11:51:02;;;;;;;6.35;2.47;;;18.40;82.20;;;;;;5051473;28;20037;-64
2022/04/21 11:53:42;;;;;;;6.67;2.40;;;18.60;62.60;;;;;;5051124;28;20073;-64
2022/04/21 11:56:09;;;;;;;3.13;2.10;;;18.50;65.60;;;;;;5031234;28;20589;-64
2022/04/21 11:58:37;;;;;;;3.80;1.67;;;17.80;62.20;;;;;;5037111;28;20056;-64
2022/04/21 12:06:55;;;;;;;4.47;1.88;;;17.50;62.50;;;;;;5052241;28;20082;-64
2022/04/21 12:09:23;;;;;;;5.00;1.80;;;17.70;63.60;;;;;;5052327;28;20111;-64
2022/04/21 12:11:53;;;;;;;1.65;1.55;;;17.80;61.30;;;;;;5052089;28;20025;-64
2022/04/21 12:14:19;;;;;;;1.17;1.08;;;17.80;61.20;;;;;;5062261;28;20502;-65
2022/04/21 12:16:53;;;;;;;3.83;1.50;;;18.00;61.70;;;;;;5051576;28;20040;-64
2022/04/21 12:19:19;;;;;;;1.65;1.40;;;18.50;61.20;;;;;;5051353;28;20454;-64
2022/04/21 12:21:58;;;;;;;3.80;1.15;;;18.90;58.30;;;;;;5051920;28;20064;-64
2022/04/21 12:24:35;;;;;;;1.40;1.30;;;19.00;58.40;;;;;;5051695;28;20047;-64
2022/04/21 12:27:03;;;;;;;1.13;1.02;;;19.10;56.50;;;;;;5050864;28;20090;-64
2022/04/21 12:29:31;;;;;;;3.55;1.10;;;19.10;56.70;;;;;;5052138;28;20110;-64
2022/04/21 12:32:01;;;;;;;2.65;0.90;;;19.00;56.50;;;;;;5050608;28;20037;-67
2022/04/21 12:34:29;;;;;;;1.13;1.00;;;18.80;57.20;;;;;;5051942;28;20044;-64
2022/04/21 12:37:00;;;;;;;1.73;0.95;;;18.70;57.00;;;;;;5051490;28;20029;-67
2022/04/21 12:39:28;;;;;;;1.52;1.00;;;18.70;57.40;;;;;;5051777;28;20041;-63
2022/04/21 12:41:55;;;;;;;2.40;1.23;;;19.00;55.90;;;;;;5051081;28;20037;-65
2022/04/21 12:44:25;;;;;;;3.55;1.30;;;19.60;55.60;;;;;;5059331;28;20036;-63
2022/04/21 12:47:00;;;;;;;1.75;1.15;;;19.50;55.50;;;;;;5053151;28;20029;-63
2022/04/21 12:49:55;;;;;;;1.25;1.15;;;19.00;55.40;;;;;;5035804;28;20541;-63
2022/04/21 12:52:33;;;;;;;3.47;1.08;;;18.60;56.10;;;;;;5040442;28;20069;-63
2022/04/21 12:54:59;;;;;;;0.98;0.98;;;18.50;56.60;;;;;;5054866;28;20131;-64
2022/04/21 12:57:27;;;;;;;1.60;1.10;;;18.60;56.40;;;;;;5055602;28;20032;-64
2022/04/21 12:59:53;;;;;;;1.10;1.10;;;19.00;56.40;;;;;;5055188;28;20040;-64
2022/04/21 13:02:19;;;;;;;4.47;1.45;;;19.70;55.90;;;;;;5054105;28;20036;-64
2022/04/21 13:04:45;;;;;;;1.58;1.25;;;19.70;55.30;;;;;;5055127;28;20037;-63
2022/04/21 13:07:11;;;;;;;2.95;1.52;;;19.50;55.70;;;;;;5054432;28;20021;-63
2022/04/21 13:09:37;;;;;;;6.72;1.10;;;18.80;56.40;;;;;;5055701;28;20029;-63
2022/04/21 13:12:04;;;;;;;1.35;1.25;;;18.50;57.40;;;;;;5054232;28;20029;-64
2022/04/21 13:14:29;;;;;;;1.73;1.27;;;18.40;56.80;;;;;;5063701;28;20029;-65
2022/04/21 13:16:55;;;;;;;2.10;1.38;;;18.50;56.90;;;;;;5054111;28;20087;-66
2022/04/21 13:19:21;;;;;;;1.33;1.23;;;18.50;57.60;;;;;;5054264;28;20631;-64
2022/04/21 13:21:52;;;;;;;1.55;1.00;;;18.40;57.30;;;;;;5055348;28;20029;-63
2022/04/21 13:24:25;;;;;;;2.20;2.00;;;18.30;57.10;;;;;;5054382;28;20469;-64
2022/04/21 13:26:56;;;;;;;3.58;2.05;;;18.10;59.10;;;;;;5055141;28;20033;-65
2022/04/21 13:29:21;;;;;;;;;;;18.10;59.50;;;;;;5054905;28;20107;-65
2022/04/21 13:34:33;;;;;;;2.78;2.00;;;18.20;60.00;;;;;;5054890;28;20394;-64
2022/04/21 13:37:00;;;;;;;2.45;2.05;;;18.30;59.40;;;;;;5054380;28;20061;-67
2022/04/21 13:39:25;;;;;;;2.97;2.40;;;18.40;58.40;;;;;;5055071;28;20021;-65
2022/04/21 13:41:51;;;;;;;2.80;1.70;;;18.50;58.80;;;;;;5055145;28;20108;-64
2022/04/21 13:44:17;;;;;;;2.28;1.92;;;18.50;58.80;;;;;;5059354;28;20025;-64
2022/04/21 13:46:43;;;;;;;2.92;2.38;;;18.40;59.10;;;;;;5054664;28;20032;-63
2022/04/21 13:49:10;;;;;;;4.03;2.00;;;18.40;58.60;;;;;;5053743;28;20028;-63